Time;durP1;ratioP1;P1;durP2;ratioP2;P2;SDS_P1;SDS_P2;PMS_P1;PMS_P2;Temp;Humidity;BMP_temperature;BMP_pressure;BME280_temperature;BME280_humidity;BME280_pressure;Samples;Min_cycle;Max_cycle;Signal;HPM_P1;HPM_P2
2022/11/21 00:00:53;;;;;;;18.17;4.25;;;;;;;17.10;65.42;98400.88;5071215;28;20047;-82
2022/11/21 00:03:19;;;;;;;18.13;4.82;;;;;;;17.60;65.63;98473.78;5053190;28;20025;-82
2022/11/21 00:05:46;;;;;;;16.00;4.28;;;;;;;17.85;65.59;98513.34;5053217;28;20038;-82
2022/11/21 00:08:17;;;;;;;20.70;5.30;;;;;;;17.54;65.70;98454.22;5071114;28;20124;-82
2022/11/21 00:10:43;;;;;;;16.98;4.65;;;;;;;17.28;65.60;98437.09;5071084;28;20101;-83
2022/11/21 00:13:13;;;;;;;16.08;4.80;;;;;;;17.76;65.64;98500.41;5070921;28;20518;-82
2022/11/21 00:15:39;;;;;;;14.15;5.45;;;;;;;17.07;65.74;98353.34;5071017;28;20025;-83
2022/11/21 00:18:04;;;;;;;14.18;4.40;;;;;;;17.23;65.64;98372.22;5052879;28;20082;-83
2022/11/21 00:20:30;;;;;;;14.15;4.50;;;;;;;17.68;65.77;98438.66;5070748;28;20061;-83
2022/11/21 00:22:55;;;;;;;17.63;4.60;;;;;;;16.87;66.10;98299.78;5070898;28;20056;-83
2022/11/21 00:25:21;;;;;;;18.42;5.60;;;;;;;17.02;66.22;98347.94;5070794;28;20485;-83
2022/11/21 00:27:46;;;;;;;16.80;4.85;;;;;;;17.19;66.20;98374.56;5070798;28;20490;-83
2022/11/21 00:30:12;;;;;;;14.32;4.38;;;;;;;17.81;66.28;98475.63;5071190;28;20086;-82
2022/11/21 00:32:38;;;;;;;21.10;5.07;;;;;;;17.74;66.33;98477.69;5070780;28;20062;-83
2022/11/21 00:35:05;;;;;;;19.25;5.13;;;;;;;17.84;66.26;98466.34;5070887;28;20029;-83
2022/11/21 00:37:32;;;;;;;15.30;4.32;;;;;;;17.18;66.37;98329.47;5070841;28;20501;-83
2022/11/21 00:39:57;;;;;;;19.30;5.72;;;;;;;16.81;66.43;98244.78;5052728;28;20091;-83
2022/11/21 00:42:23;;;;;;;18.60;4.95;;;;;;;17.46;66.40;98334.56;5070635;28;20028;-81
2022/11/21 00:44:48;;;;;;;15.43;4.95;;;;;;;17.80;66.55;98377.91;5070917;28;20063;-82
2022/11/21 00:47:13;;;;;;;18.88;5.32;;;;;;;17.79;66.54;98363.75;5053071;28;20017;-83
2022/11/21 00:49:39;;;;;;;16.55;4.55;;;;;;;17.78;66.34;98354.13;5072979;28;20504;-83
2022/11/21 00:52:04;;;;;;;16.60;5.05;;;;;;;17.23;66.37;98282.31;5074130;28;20025;-83
2022/11/21 00:54:29;;;;;;;17.45;5.53;;;;;;;17.14;66.39;98260.63;5074167;28;20527;-83
2022/11/21 00:56:55;;;;;;;20.08;5.13;;;;;;;17.49;66.45;98312.72;5074113;28;20024;-83
2022/11/21 00:59:20;;;;;;;15.65;4.80;;;;;;;17.64;66.59;98320.88;5074107;28;20021;-83
2022/11/21 01:01:46;;;;;;;14.95;4.97;;;;;;;17.68;66.49;98319.34;5056221;28;20455;-83
2022/11/21 01:04:11;;;;;;;17.75;5.55;;;;;;;17.21;66.50;98247.09;5074157;28;20037;-82
2022/11/21 01:06:37;;;;;;;18.10;5.80;;;;;;;17.45;66.49;98300.94;5074139;28;20731;-83
2022/11/21 01:09:03;;;;;;;19.10;6.07;;;;;;;16.91;66.33;98250.22;5074024;28;20050;-82
2022/11/21 01:11:29;;;;;;;19.88;5.85;;;;;;;17.83;66.58;98345.34;5073867;28;20479;-82
2022/11/21 01:13:55;;;;;;;20.33;5.65;;;;;;;17.69;66.70;98352.19;5073855;28;20110;-82
2022/11/21 01:16:24;;;;;;;20.23;6.10;;;;;;;17.54;66.72;98325.31;5055973;28;20024;-82
2022/11/21 01:18:50;;;;;;;23.70;6.78;;;;;;;17.83;66.86;98368.59;5088383;28;20015;-82
2022/11/21 01:21:21;;;;;;;20.58;5.43;;;;;;;17.81;66.94;98363.50;5076999;28;20040;-82
2022/11/21 01:23:47;;;;;;;;;;;;;;;17.67;67.47;98346.28;5074821;28;20036;-82
2022/11/21 01:26:18;;;;;;;22.63;5.93;;;;;;;17.73;67.21;98364.75;5074672;28;19912;-82
2022/11/21 01:28:44;;;;;;;24.67;6.03;;;;;;;17.67;67.31;98370.31;5055976;28;20516;-82
2022/11/21 01:31:12;;;;;;;21.15;6.28;;;;;;;16.14;67.19;98125.16;5073320;28;20298;-82
2022/11/21 01:33:38;;;;;;;20.10;5.65;;;;;;;17.67;67.22;98365.78;5055462;28;20534;-82
2022/11/21 01:36:21;;;;;;;22.27;6.65;;;;;;;17.68;66.86;98355.91;5073423;28;20162;-83
2022/11/21 01:38:50;;;;;;;23.25;6.65;;;;;;;17.46;66.74;98314.03;5055278;28;20041;-83
2022/11/21 01:41:20;;;;;;;31.08;7.15;;;;;;;17.41;66.58;98294.50;5073312;28;20066;-83
2022/11/21 01:43:46;;;;;;;26.45;6.40;;;;;;;17.75;66.39;98349.28;5073127;28;20035;-83
2022/11/21 01:46:19;;;;;;;28.75;7.60;;;;;;;17.82;66.21;98333.06;5073120;28;20012;-82
2022/11/21 01:48:47;;;;;;;33.88;8.02;;;;;;;17.57;65.74;98284.78;5055258;28;20054;-83
2022/11/21 01:52:11;;;;;;;29.63;7.00;;;;;;;17.94;65.88;98335.59;5073308;28;20421;-82
2022/11/21 01:54:45;;;;;;;19.63;6.55;;;;;;;18.00;65.68;98347.94;5016371;28;20056;-82
2022/11/21 01:57:25;;;;;;;28.70;6.90;;;;;;;17.46;65.71;98258.00;5072975;28;20470;-82
2022/11/21 01:59:59;;;;;;;31.67;7.68;;;;;;;17.61;65.71;98243.97;5072496;28;20058;-82
2022/11/21 02:02:31;;;;;;;29.70;7.00;;;;;;;17.66;65.76;98244.03;5072914;28;20028;-83
2022/11/21 02:04:59;;;;;;;39.70;7.45;;;;;;;17.33;65.88;98177.56;5072839;28;20085;-82
2022/11/21 02:07:27;;;;;;;30.25;7.93;;;;;;;17.78;65.95;98244.66;5054618;28;20031;-82
2022/11/21 02:09:59;;;;;;;26.67;6.72;;;;;;;18.05;66.33;98294.56;5054857;28;20030;-82
2022/11/21 02:12:37;;;;;;;31.27;8.00;;;;;;;17.88;66.63;98289.34;5073054;28;20024;-83
2022/11/21 02:15:03;;;;;;;31.08;8.07;;;;;;;17.53;66.75;98230.28;5072673;28;20071;-82
2022/11/21 02:17:30;;;;;;;40.17;8.35;;;;;;;17.78;66.82;98267.88;5054562;28;20500;-83
2022/11/21 02:20:01;;;;;;;34.05;8.23;;;;;;;17.40;66.85;98229.66;5072647;28;20509;-82
2022/11/21 02:22:39;;;;;;;30.77;7.82;;;;;;;17.98;66.85;98304.66;5072546;28;20035;-82
2022/11/21 02:25:10;;;;;;;35.17;7.72;;;;;;;18.01;67.18;98320.16;5072411;28;20493;-84
2022/11/21 02:27:36;;;;;;;25.63;6.95;;;;;;;17.72;67.05;98291.06;5054496;28;20059;-82
2022/11/21 02:30:03;;;;;;;31.33;8.85;;;;;;;17.57;67.32;98256.22;5055160;28;20036;-82
2022/11/21 02:32:35;;;;;;;33.67;8.27;;;;;;;17.61;67.51;98264.53;5072289;28;20028;-83
2022/11/21 02:35:01;;;;;;;23.30;7.15;;;;;;;17.46;67.43;98241.19;5072320;28;20100;-82
2022/11/21 02:37:27;;;;;;;29.08;6.70;;;;;;;18.00;67.33;98326.56;5072368;28;20540;-83
2022/11/21 02:39:54;;;;;;;28.00;6.47;;;;;;;17.75;67.40;98279.09;5072087;28;20100;-83
2022/11/21 02:42:37;;;;;;;35.72;7.90;;;;;;;17.53;67.23;98263.13;5072152;28;20035;-84
2022/11/21 02:45:13;;;;;;;28.40;6.78;;;;;;;17.79;67.38;98293.53;5072564;28;20031;-83
2022/11/21 02:47:40;;;;;;;23.58;6.82;;;;;;;17.43;67.62;98229.16;5054214;28;20032;-84
2022/11/21 02:50:14;;;;;;;31.23;7.10;;;;;;;18.05;67.87;98327.41;5072021;28;20052;-83
2022/11/21 02:52:39;;;;;;;26.17;7.43;;;;;;;17.71;68.24;98269.97;5071870;28;20040;-83
2022/11/21 02:55:05;;;;;;;35.20;8.50;;;;;;;17.66;68.45;98256.56;5053930;28;20032;-83
2022/11/21 02:57:31;;;;;;;25.77;6.75;;;;;;;17.15;68.78;98187.56;5053764;28;20024;-83
2022/11/21 02:59:56;;;;;;;29.73;6.35;;;;;;;17.51;68.60;98249.22;5053685;28;20409;-83
2022/11/21 03:02:22;;;;;;;25.20;7.35;;;;;;;17.63;68.56;98276.56;5053707;28;20044;-83
2022/11/21 03:04:47;;;;;;;27.42;7.18;;;;;;;17.86;68.31;98318.19;5071789;28;20029;-83
2022/11/21 03:07:13;;;;;;;28.63;6.60;;;;;;;17.04;68.40;98188.50;5071628;28;20029;-82
2022/11/21 03:09:38;;;;;;;23.00;5.88;;;;;;;17.22;68.36;98226.56;5068788;28;20052;-82
2022/11/21 03:12:08;;;;;;;26.02;6.68;;;;;;;17.78;68.52;98332.78;5071559;28;20035;-82
2022/11/21 03:14:35;;;;;;;25.10;5.90;;;;;;;17.05;68.58;98223.97;5071623;28;20060;-83
2022/11/21 03:17:01;;;;;;;22.02;6.40;;;;;;;17.75;68.67;98329.81;5071771;28;20033;-82
2022/11/21 03:19:27;;;;;;;26.33;6.20;;;;;;;17.17;68.71;98266.53;5070306;28;20531;-82
2022/11/21 03:21:53;;;;;;;27.67;6.72;;;;;;;17.35;68.71;98276.84;5070368;28;20115;-82
2022/11/21 03:24:18;;;;;;;28.45;6.40;;;;;;;17.39;68.85;98261.94;5071724;28;20024;-82
2022/11/21 03:26:43;;;;;;;27.67;8.15;;;;;;;17.55;68.61;98290.38;5071582;28;20030;-83
2022/11/21 03:29:09;;;;;;;27.23;6.72;;;;;;;17.40;68.99;98256.34;5071510;28;20032;-82
2022/11/21 03:31:34;;;;;;;26.40;5.85;;;;;;;17.79;68.84;98313.03;5070282;28;20489;-82
2022/11/21 03:34:00;;;;;;;23.30;6.88;;;;;;;17.71;68.92;98331.38;5070145;28;20029;-82
2022/11/21 03:36:25;;;;;;;28.60;7.25;;;;;;;17.77;69.12;98309.00;5071283;28;20564;-82
2022/11/21 03:38:51;;;;;;;33.95;7.50;;;;;;;17.37;69.09;98256.03;5070064;28;20024;-82
2022/11/21 03:41:28;;;;;;;29.45;6.78;;;;;;;17.12;69.19;98253.94;5070125;28;20035;-82
2022/11/21 03:44:02;;;;;;;31.33;7.72;;;;;;;17.76;69.08;98308.19;5071388;28;20078;-82
2022/11/21 03:46:28;;;;;;;34.78;8.68;;;;;;;17.07;68.97;98204.00;5071369;28;20052;-82
2022/11/21 03:48:54;;;;;;;32.17;7.93;;;;;;;17.74;68.87;98304.97;5071128;28;20117;-83
2022/11/21 03:51:20;;;;;;;25.25;6.55;;;;;;;16.34;68.56;98079.28;5069666;28;20048;-82
2022/11/21 03:53:46;;;;;;;28.02;6.97;;;;;;;17.28;68.40;98215.69;5071001;28;20054;-83
2022/11/21 03:56:12;;;;;;;27.67;7.07;;;;;;;17.26;68.26;98233.00;5069701;28;20557;-83
2022/11/21 03:58:37;;;;;;;28.13;6.30;;;;;;;17.52;68.13;98256.19;5071125;28;20032;-83
2022/11/21 04:01:03;;;;;;;27.27;6.40;;;;;;;16.25;67.91;98056.81;5071251;28;20035;-82
2022/11/21 04:03:28;;;;;;;23.92;6.70;;;;;;;17.67;67.89;98274.22;5071185;28;20034;-82
2022/11/21 04:05:54;;;;;;;28.08;6.78;;;;;;;17.60;68.06;98245.03;5071255;28;20028;-83
2022/11/21 04:08:19;;;;;;;19.27;5.72;;;;;;;17.52;67.82;98236.69;5069662;28;20048;-82
2022/11/21 04:10:50;;;;;;;29.08;6.75;;;;;;;17.18;67.87;98191.59;5071195;28;20126;-83
2022/11/21 04:13:16;;;;;;;24.65;5.82;;;;;;;17.13;67.74;98195.03;5069843;28;20032;-83
2022/11/21 04:15:42;;;;;;;24.67;5.72;;;;;;;17.57;67.08;98258.09;5071228;28;20031;-83
2022/11/21 04:18:07;;;;;;;19.48;5.30;;;;;;;17.58;66.65;98271.16;5070920;28;20029;-83
2022/11/21 04:20:33;;;;;;;24.25;5.63;;;;;;;17.54;66.53;98277.28;5069805;28;20055;-83
2022/11/21 04:22:59;;;;;;;18.98;4.90;;;;;;;17.55;66.09;98253.00;5069881;28;20493;-82
2022/11/21 04:25:24;;;;;;;21.25;4.97;;;;;;;17.04;65.79;98190.38;5075220;28;20025;-83
2022/11/21 04:27:49;;;;;;;20.55;5.43;;;;;;;16.91;65.71;98164.13;5074977;28;20074;-83
2022/11/21 04:30:15;;;;;;;18.92;5.57;;;;;;;17.17;65.54;98213.97;5075342;28;20032;-81
2022/11/21 04:32:40;;;;;;;18.50;4.85;;;;;;;17.47;65.48;98288.16;5074831;28;20056;-83
2022/11/21 04:35:06;;;;;;;18.98;5.28;;;;;;;16.78;65.35;98158.13;5074821;28;20470;-83
2022/11/21 04:37:31;;;;;;;20.75;4.95;;;;;;;16.83;65.31;98184.84;5073456;28;20036;-83
2022/11/21 04:39:57;;;;;;;15.35;4.95;;;;;;;17.09;65.06;98211.75;5074820;28;20056;-82
2022/11/21 04:42:23;;;;;;;21.20;5.70;;;;;;;17.19;64.80;98232.41;5074812;28;20165;-84
2022/11/21 04:44:48;;;;;;;19.45;5.75;;;;;;;16.97;64.69;98187.91;5074658;28;20028;-83
2022/11/21 04:47:13;;;;;;;15.18;4.80;;;;;;;16.73;64.47;98166.06;5073184;28;20111;-83
2022/11/21 04:49:39;;;;;;;17.05;5.63;;;;;;;17.04;64.30;98191.16;5074588;28;20025;-83
2022/11/21 04:52:04;;;;;;;23.83;6.05;;;;;;;17.31;63.63;98249.84;5073157;28;20485;-82
2022/11/21 04:54:30;;;;;;;16.27;4.35;;;;;;;16.70;64.06;98149.78;5074392;28;20107;-83
2022/11/21 04:56:55;;;;;;;20.45;4.63;;;;;;;16.79;63.93;98173.06;5074136;28;20035;-83
2022/11/21 04:59:20;;;;;;;24.48;5.15;;;;;;;17.26;64.13;98246.34;5074692;28;20032;-83
2022/11/21 05:01:46;;;;;;;22.55;4.90;;;;;;;16.36;64.05;98095.84;5075100;28;20017;-82
2022/11/21 05:04:11;;;;;;;20.35;5.18;;;;;;;17.11;64.21;98210.47;5074483;28;20021;-82
2022/11/21 05:06:37;;;;;;;22.30;5.95;;;;;;;16.96;64.41;98204.16;5074213;28;20082;-82
2022/11/21 05:09:02;;;;;;;17.48;4.63;;;;;;;17.13;64.17;98210.22;5073939;28;20052;-83
2022/11/21 05:14:12;;;;;;;23.48;5.63;;;;;;;16.44;64.06;98088.22;5074450;28;20031;-83
2022/11/21 05:16:37;;;;;;;20.38;5.00;;;;;;;16.78;64.19;98142.13;5073871;28;20028;-83
2022/11/21 05:19:03;;;;;;;22.80;5.20;;;;;;;17.11;64.17;98183.81;5073728;28;20025;-82
2022/11/21 05:21:28;;;;;;;15.75;4.93;;;;;;;16.91;64.07;98143.59;5055838;28;20111;-82
2022/11/21 05:23:53;;;;;;;23.05;4.95;;;;;;;16.19;63.93;98040.00;5055670;28;20055;-82
2022/11/21 05:26:19;;;;;;;22.58;4.85;;;;;;;16.37;64.07;98073.50;5073799;28;20137;-82
2022/11/21 05:28:46;;;;;;;21.30;5.10;;;;;;;16.72;63.91;98121.03;5073667;28;20024;-82
2022/11/21 05:31:11;;;;;;;20.23;5.43;;;;;;;16.80;63.76;98139.22;5073720;28;20028;-82
2022/11/21 05:33:37;;;;;;;25.20;5.65;;;;;;;16.82;63.45;98155.78;5073574;28;20540;-82
2022/11/21 05:36:02;;;;;;;25.15;5.85;;;;;;;16.65;63.33;98125.72;5054256;28;20108;-82
2022/11/21 05:38:28;;;;;;;21.45;5.38;;;;;;;16.98;62.99;98173.50;5073388;28;20058;-82
2022/11/21 05:40:53;;;;;;;22.33;5.25;;;;;;;16.73;63.05;98155.41;5055242;28;20060;-82
2022/11/21 05:46:02;;;;;;;23.33;5.82;;;;;;;16.86;62.21;98158.72;5073625;28;20030;-82
2022/11/21 05:48:28;;;;;;;19.02;3.78;;;;;;;16.92;62.17;98192.38;5073341;28;20420;-82
2022/11/21 05:50:53;;;;;;;20.50;4.68;;;;;;;15.75;61.36;98016.09;5073336;28;20036;-83
2022/11/21 05:53:19;;;;;;;19.05;3.92;;;;;;;17.22;61.03;98229.22;5073183;28;20028;-82
2022/11/21 05:55:44;;;;;;;20.58;4.05;;;;;;;16.63;60.78;98141.97;5073233;28;20028;-82
2022/11/21 05:58:10;;;;;;;12.18;3.28;;;;;;;17.21;60.06;98248.97;5072845;28;20031;-83
2022/11/21 06:00:36;;;;;;;17.98;3.85;;;;;;;17.28;59.13;98249.56;5073169;28;20099;-83
2022/11/21 06:05:46;;;;;;;13.23;3.20;;;;;;;16.84;57.86;98167.78;5073059;28;20039;-83
2022/11/21 06:08:11;;;;;;;16.58;2.97;;;;;;;16.79;57.30;98159.75;5072722;28;20045;-81
2022/11/21 06:10:37;;;;;;;16.05;4.13;;;;;;;17.44;56.95;98264.66;5072808;28;20024;-81
2022/11/21 06:13:02;;;;;;;13.38;3.40;;;;;;;17.45;56.80;98271.59;5073044;28;20028;-81
2022/11/21 06:15:28;;;;;;;16.35;3.45;;;;;;;17.55;57.08;98271.69;5072856;28;20031;-83
2022/11/21 06:17:54;;;;;;;16.25;3.90;;;;;;;17.30;56.78;98234.09;5072638;28;20029;-84
2022/11/21 06:20:19;;;;;;;14.13;3.10;;;;;;;17.51;56.87;98254.56;5072687;28;20035;-83
2022/11/21 06:22:45;;;;;;;10.88;3.65;;;;;;;17.26;56.74;98228.47;5072848;28;20028;-82
2022/11/21 06:25:10;;;;;;;12.82;3.30;;;;;;;17.16;56.61;98207.03;5072864;28;20153;-82
2022/11/21 06:27:35;;;;;;;17.23;3.67;;;;;;;17.29;56.74;98227.16;5054350;28;20028;-82
2022/11/21 06:30:01;;;;;;;16.63;3.83;;;;;;;17.68;56.40;98273.97;5071529;28;20119;-82
2022/11/21 06:32:26;;;;;;;22.27;3.78;;;;;;;17.67;56.20;98276.88;5072811;28;20031;-82
2022/11/21 06:34:52;;;;;;;15.00;3.70;;;;;;;17.76;56.04;98302.03;5072563;28;20029;-82
2022/11/21 06:37:17;;;;;;;12.73;3.55;;;;;;;17.27;55.90;98223.94;5072578;28;20481;-82
2022/11/21 06:39:43;;;;;;;15.73;3.53;;;;;;;17.67;55.89;98271.53;5073012;28;20024;-82
2022/11/21 06:42:08;;;;;;;20.52;3.85;;;;;;;17.94;55.44;98295.53;5072822;28;20158;-82
2022/11/21 06:44:34;;;;;;;17.05;2.85;;;;;;;17.56;55.80;98238.59;5076492;28;20409;-82
2022/11/21 06:46:59;;;;;;;12.90;3.15;;;;;;;17.97;55.17;98317.19;5072692;28;20099;-81
2022/11/21 06:49:24;;;;;;;14.38;3.00;;;;;;;18.01;55.11;98354.88;5071707;28;20504;-82
2022/11/21 06:51:50;;;;;;;14.18;2.92;;;;;;;18.06;54.87;98338.91;5070955;28;20032;-82
2022/11/21 06:54:15;;;;;;;15.63;2.95;;;;;;;17.30;54.74;98204.75;5072676;28;20031;-82
2022/11/21 06:56:41;;;;;;;16.02;3.67;;;;;;;18.16;54.54;98330.97;5071105;28;20036;-82
2022/11/21 06:59:06;;;;;;;14.20;3.20;;;;;;;17.40;53.76;98196.84;5072751;28;20032;-82
2022/11/21 07:01:31;;;;;;;13.98;3.72;;;;;;;17.55;53.96;98220.97;5072692;28;20029;-82
2022/11/21 07:03:57;;;;;;;13.80;3.33;;;;;;;18.26;53.79;98320.34;5086341;28;20035;-82
2022/11/21 07:06:23;;;;;;;16.85;3.33;;;;;;;18.30;53.65;98323.31;5085904;28;20051;-81
2022/11/21 07:08:52;;;;;;;10.75;2.90;;;;;;;18.12;53.13;98300.47;5072699;28;20055;-82
2022/11/21 07:11:17;;;;;;;14.98;3.47;;;;;;;17.54;53.17;98213.22;5072112;28;20028;-82
2022/11/21 07:13:43;;;;;;;16.52;4.03;;;;;;;18.30;53.25;98334.78;5072200;28;20024;-82
2022/11/21 07:16:14;;;;;;;12.68;3.25;;;;;;;18.26;52.05;98324.88;5071819;28;20028;-81
2022/11/21 07:18:41;;;;;;;16.37;3.37;;;;;;;18.29;52.95;98329.72;5051550;28;20417;-82
2022/11/21 07:21:07;;;;;;;12.88;2.90;;;;;;;18.32;52.72;98338.00;5059399;28;20024;-82
2022/11/21 07:23:33;;;;;;;17.70;3.33;;;;;;;18.09;52.77;98299.13;5069485;28;20043;-82
2022/11/21 07:26:03;;;;;;;15.02;3.35;;;;;;;18.41;52.68;98316.97;5037485;28;20511;-82
2022/11/21 07:28:30;;;;;;;14.05;3.80;;;;;;;18.41;52.04;98312.41;5071233;28;20540;-80
2022/11/21 07:30:57;;;;;;;13.60;3.30;;;;;;;18.11;52.02;98250.78;5071213;28;20028;-81
2022/11/21 07:33:23;;;;;;;14.13;3.30;;;;;;;18.50;51.62;98288.69;5070938;28;20521;-79
2022/11/21 07:35:48;;;;;;;12.45;3.65;;;;;;;18.56;51.64;98300.19;5051894;28;20108;-79
2022/11/21 07:38:14;;;;;;;17.65;4.95;;;;;;;17.73;51.67;98153.06;5051575;28;20029;-79
2022/11/21 07:40:39;;;;;;;16.50;4.18;;;;;;;17.13;51.06;98055.53;5055882;28;20489;-80
2022/11/21 07:43:05;;;;;;;17.77;4.18;;;;;;;18.60;51.45;98271.91;5071253;28;20107;-79
2022/11/21 07:45:32;;;;;;;11.32;3.05;;;;;;;18.09;51.26;98186.94;5071457;28;20025;-79
2022/11/21 07:48:01;;;;;;;10.70;3.20;;;;;;;18.64;51.27;98278.38;5051594;28;20414;-80
2022/11/21 07:50:28;;;;;;;12.88;3.45;;;;;;;18.63;50.92;98271.41;5065742;28;20029;-80
2022/11/21 07:52:59;;;;;;;15.70;3.30;;;;;;;18.34;50.42;98220.97;5070861;28;20571;-80
2022/11/21 07:55:25;;;;;;;13.50;3.40;;;;;;;18.77;50.56;98282.44;5070620;28;20032;-79
2022/11/21 07:58:17;;;;;;;9.18;2.63;;;;;;;18.76;50.23;98249.53;5053061;28;20497;-79
2022/11/21 08:00:42;;;;;;;14.45;2.63;;;;;;;18.61;49.61;98204.00;5052022;28;20150;-79
2022/11/21 08:03:10;;;;;;;9.23;2.53;;;;;;;18.99;49.68;98258.97;5061829;28;20044;-80
2022/11/21 08:05:37;;;;;;;11.80;3.38;;;;;;;18.28;49.03;98149.88;5070682;28;20075;-79
2022/11/21 08:08:02;;;;;;;12.90;5.20;;;;;;;18.50;49.19;98172.94;5074404;28;20116;-80
2022/11/21 08:10:28;;;;;;;17.25;4.10;;;;;;;18.85;48.97;98223.91;5074604;28;20036;-79
2022/11/21 08:12:53;;;;;;;12.13;3.42;;;;;;;19.28;48.65;98294.88;5069648;28;20025;-79
2022/11/21 08:15:19;;;;;;;14.00;2.83;;;;;;;18.72;48.54;98203.81;5054744;28;20234;-79
2022/11/21 08:17:44;;;;;;;12.80;2.20;;;;;;;18.69;48.08;98201.66;5054178;28;20123;-79
2022/11/21 08:20:10;;;;;;;9.35;2.35;;;;;;;19.30;48.02;98284.72;5069934;28;21562;-79
2022/11/21 08:22:40;;;;;;;9.13;2.35;;;;;;;19.51;47.88;98312.34;5056035;28;20484;-79
2022/11/21 08:25:07;;;;;;;11.52;3.17;;;;;;;19.38;48.14;98291.44;5051210;28;20028;-79
2022/11/21 08:27:32;;;;;;;9.80;3.00;;;;;;;19.48;47.95;98296.81;5069606;28;20028;-80
2022/11/21 08:29:57;;;;;;;11.35;2.80;;;;;;;19.62;47.60;98339.97;5064540;28;20094;-79
2022/11/21 08:32:23;;;;;;;9.00;2.70;;;;;;;19.07;47.60;98268.34;5050254;28;20099;-77
2022/11/21 08:34:48;;;;;;;11.82;3.33;;;;;;;19.13;47.63;98252.03;5049810;28;20380;-80
2022/11/21 08:37:14;;;;;;;12.55;2.92;;;;;;;19.48;47.50;98312.06;5073044;28;20031;-80
2022/11/21 08:39:39;;;;;;;8.82;2.55;;;;;;;19.45;46.60;98297.34;5072750;28;20028;-79
2022/11/21 08:42:05;;;;;;;6.60;2.05;;;;;;;19.65;46.56;98307.31;5060955;28;20574;-79
2022/11/21 08:44:31;;;;;;;11.88;2.25;;;;;;;19.90;45.99;98341.34;5058649;28;20036;-79
2022/11/21 08:46:57;;;;;;;8.73;2.03;;;;;;;18.39;45.92;98098.06;5073463;28;20051;-79
2022/11/21 08:49:23;;;;;;;9.00;2.47;;;;;;;19.97;45.12;98331.94;5065127;28;20486;-79
2022/11/21 08:51:49;;;;;;;8.05;1.83;;;;;;;20.03;45.23;98337.31;5067679;28;20090;-79
2022/11/21 08:54:19;;;;;;;9.98;2.20;;;;;;;20.09;45.45;98338.94;5074614;28;20036;-79
2022/11/21 08:56:44;;;;;;;9.40;2.53;;;;;;;20.13;45.61;98332.78;5070823;28;20039;-79
2022/11/21 08:59:10;;;;;;;8.82;2.20;;;;;;;19.41;45.64;98231.22;5072507;28;20024;-79
2022/11/21 09:01:36;;;;;;;11.35;4.53;;;;;;;19.99;45.53;98299.53;5073618;28;20036;-79
2022/11/21 09:04:03;;;;;;;7.68;3.13;;;;;;;20.15;45.28;98314.56;5072446;28;20512;-80
2022/11/21 09:06:28;;;;;;;9.50;3.25;;;;;;;20.34;45.01;98319.34;5063712;28;20527;-80
2022/11/21 09:08:54;;;;;;;8.75;2.22;;;;;;;19.84;44.89;98216.50;5057658;28;20041;-80
2022/11/21 09:11:19;;;;;;;13.82;3.30;;;;;;;20.06;44.52;98253.72;5039836;28;20037;-79
2022/11/21 09:18:01;;;;;;;7.57;3.33;;;;;;;19.64;44.60;98196.72;5054153;28;20029;-80
2022/11/21 09:19:14;;;;;;;5.82;2.10;;;;;;;20.11;43.85;98277.84;5065264;28;20119;-79
2022/11/21 09:21:39;;;;;;;6.38;2.20;;;;;;;19.88;43.46;98239.81;5071524;28;20552;-80
2022/11/21 09:24:05;;;;;;;7.72;2.22;;;;;;;20.22;43.79;98306.22;5072106;28;20030;-79
2022/11/21 09:26:30;;;;;;;6.72;1.73;;;;;;;20.05;43.82;98293.09;5073472;28;20029;-79
2022/11/21 09:28:56;;;;;;;6.68;1.52;;;;;;;19.92;43.93;98280.25;5070185;28;20023;-79
2022/11/21 09:31:21;;;;;;;11.18;3.72;;;;;;;20.00;44.34;98288.56;5067344;28;20096;-79
2022/11/21 09:33:48;;;;;;;8.20;3.45;;;;;;;19.81;44.19;98273.28;5068639;28;20458;-80
2022/11/21 09:36:13;;;;;;;10.68;2.22;;;;;;;19.58;44.37;98237.16;5073485;28;20066;-79
2022/11/21 09:38:38;;;;;;;8.13;2.70;;;;;;;19.68;44.64;98250.53;5073230;28;20032;-78
2022/11/21 09:41:50;;;;;;;7.75;2.22;;;;;;;20.12;43.85;98327.69;5070572;28;20082;-78
2022/11/21 09:44:28;;;;;;;10.90;1.58;;;;;;;19.98;44.36;98324.72;5060638;28;20028;-79
2022/11/21 09:47:07;;;;;;;7.78;1.63;;;;;;;19.28;44.68;98211.94;5071423;28;20421;-79
2022/11/21 09:49:41;;;;;;;9.23;2.25;;;;;;;19.31;44.47;98216.75;5041659;28;20516;-79
2022/11/21 09:52:08;;;;;;;5.47;1.70;;;;;;;19.56;44.48;98264.19;5071835;28;20046;-79
2022/11/21 09:54:40;;;;;;;6.05;1.92;;;;;;;19.98;44.28;98333.56;5064808;28;20044;-79
2022/11/21 09:57:09;;;;;;;8.43;1.92;;;;;;;19.79;44.23;98294.19;5066291;28;20503;-80
2022/11/21 09:59:37;;;;;;;6.22;1.90;;;;;;;19.88;44.33;98314.81;5070347;28;20043;-79
2022/11/21 10:02:14;;;;;;;7.78;1.40;;;;;;;19.78;44.00;98316.69;5072832;28;20099;-79
2022/11/21 10:04:39;;;;;;;9.65;1.80;;;;;;;19.25;44.04;98217.00;5066008;28;20035;-80
2022/11/21 10:07:10;;;;;;;9.57;1.60;;;;;;;19.86;44.09;98334.91;5071268;28;20021;-81
2022/11/21 10:10:01;;;;;;;11.68;2.00;;;;;;;19.83;43.60;98314.00;5057431;28;20049;-80
2022/11/21 10:12:46;;;;;;;5.82;1.42;;;;;;;19.83;44.01;98316.69;5073168;28;20043;-80
2022/11/21 10:15:31;;;;;;;9.35;1.80;;;;;;;19.87;44.15;98304.38;5097007;28;20062;-79
2022/11/21 10:18:08;;;;;;;9.85;2.28;;;;;;;19.88;44.12;98305.97;5078938;28;20463;-79
2022/11/21 10:21:01;;;;;;;5.35;1.33;;;;;;;19.89;43.78;98307.56;5065448;28;20024;-79
2022/11/21 10:23:58;;;;;;;7.00;1.48;;;;;;;19.92;44.08;98305.16;5067661;28;20032;-80
2022/11/21 10:26:59;;;;;;;8.15;2.88;;;;;;;19.65;44.40;98269.81;5072642;28;20103;-79
2022/11/21 10:29:33;;;;;;;6.07;1.50;;;;;;;19.83;43.70;98298.75;5050073;28;20032;-80
2022/11/21 10:32:14;;;;;;;6.53;1.83;;;;;;;19.49;44.24;98244.88;5067272;28;20017;-80
2022/11/21 10:34:39;;;;;;;7.35;1.52;;;;;;;18.86;44.29;98128.44;5068925;28;20028;-79
2022/11/21 10:37:26;;;;;;;8.38;1.90;;;;;;;20.00;43.42;98290.44;5066914;28;20032;-80
2022/11/21 10:39:53;;;;;;;6.22;1.63;;;;;;;19.80;44.33;98239.56;5080169;28;20027;-81
2022/11/21 10:42:39;;;;;;;4.97;1.17;;;;;;;19.63;42.78;98221.88;5092261;28;20016;-80
2022/11/21 10:45:17;;;;;;;4.25;1.80;;;;;;;20.01;42.43;98262.56;5090928;28;20025;-79
2022/11/21 10:47:48;;;;;;;3.78;0.70;;;;;;;19.78;42.13;98220.25;5071216;28;20032;-78
2022/11/21 10:50:32;;;;;;;4.00;1.13;;;;;;;20.18;42.09;98283.72;5070969;28;20037;-79
2022/11/21 10:54:31;;;;;;;4.15;1.52;;;;;;;20.19;41.87;98286.13;5071434;28;20308;-79
2022/11/21 10:56:01;;;;;;;4.38;1.65;;;;;;;20.24;41.21;98283.44;5058888;28;20150;-79
2022/11/21 10:58:40;;;;;;;3.53;1.88;;;;;;;20.30;41.85;98279.69;5058631;28;20115;-79
2022/11/21 11:01:05;;;;;;;12.27;7.07;;;;;;;20.10;41.97;98254.81;5057681;28;20073;-79
2022/11/21 11:03:31;;;;;;;6.20;2.13;;;;;;;20.20;41.65;98262.81;5066933;28;20489;-80
2022/11/21 11:05:57;;;;;;;8.10;4.82;;;;;;;20.22;41.39;98274.88;5051752;28;20111;-79
2022/11/21 11:08:23;;;;;;;6.40;3.65;;;;;;;20.21;40.95;98281.31;5054183;28;20146;-78
2022/11/21 11:11:05;;;;;;;7.85;4.50;;;;;;;20.33;40.58;98288.25;5066710;28;20020;-79
2022/11/21 11:13:35;;;;;;;7.70;3.40;;;;;;;20.02;40.94;98255.31;5055568;28;20036;-79
2022/11/21 11:16:03;;;;;;;13.45;9.02;;;;;;;20.25;41.13;98285.06;5062800;28;20029;-78
2022/11/21 11:18:32;;;;;;;7.05;2.83;;;;;;;20.24;41.48;98288.00;5069399;28;20030;-79
2022/11/21 11:21:12;;;;;;;8.98;3.60;;;;;;;20.16;40.62;98277.84;5071626;28;20408;-80
2022/11/21 11:23:37;;;;;;;7.22;2.63;;;;;;;20.20;41.02;98287.75;5059208;28;20028;-80
2022/11/21 11:26:26;;;;;;;6.18;1.92;;;;;;;20.19;39.86;98279.97;5069597;28;20039;-80
2022/11/21 11:28:54;;;;;;;5.15;2.97;;;;;;;20.16;40.71;98294.72;5065535;28;20029;-80
2022/11/21 11:31:20;;;;;;;6.45;3.28;;;;;;;19.67;40.73;98203.41;5064080;28;20029;-79
2022/11/21 11:33:50;;;;;;;5.57;3.42;;;;;;;20.13;40.83;98284.53;5062369;28;20027;-79
2022/11/21 11:36:24;;;;;;;5.03;2.42;;;;;;;20.12;40.72;98290.16;5065042;28;20043;-80
2022/11/21 11:38:56;;;;;;;4.85;2.75;;;;;;;19.85;40.25;98253.75;5070462;28;20029;-79
2022/11/21 11:47:47;;;;;;;2.90;1.20;;;;;;;19.92;40.06;98285.59;5066813;28;20051;-80
2022/11/21 11:50:22;;;;;;;1.05;0.60;;;;;;;19.92;39.31;98296.31;5067670;28;20193;-80